sensor_id;sensor_type;location;lat;lon;timestamp;temperature;humidity
31729;DHT22;18309;43.658;1.312;2023-07-22T00:02:12;20.40;99.90
31729;DHT22;18309;43.658;1.312;2023-07-22T00:04:38;20.30;99.90
31729;DHT22;18309;43.658;1.312;2023-07-22T00:07:04;20.30;99.90
31729;DHT22;18309;43.658;1.312;2023-07-22T00:09:32;20.30;99.90
31729;DHT22;18309;43.658;1.312;2023-07-22T00:11:59;20.10;99.90
31729;DHT22;18309;43.658;1.312;2023-07-22T00:14:25;20.10;99.90
31729;DHT22;18309;43.658;1.312;2023-07-22T00:16:50;20.00;99.90
31729;DHT22;18309;43.658;1.312;2023-07-22T00:19:16;20.10;99.90
31729;DHT22;18309;43.658;1.312;2023-07-22T00:21:42;19.90;99.90
31729;DHT22;18309;43.658;1.312;2023-07-22T00:24:07;19.90;99.90
31729;DHT22;18309;43.658;1.312;2023-07-22T00:26:34;20.00;99.90
31729;DHT22;18309;43.658;1.312;2023-07-22T00:28:59;20.00;99.90
31729;DHT22;18309;43.658;1.312;2023-07-22T00:31:25;20.10;99.90
31729;DHT22;18309;43.658;1.312;2023-07-22T00:33:51;20.10;99.90
31729;DHT22;18309;43.658;1.312;2023-07-22T00:36:17;20.10;99.90
31729;DHT22;18309;43.658;1.312;2023-07-22T00:38:43;20.10;99.90
31729;DHT22;18309;43.658;1.312;2023-07-22T00:41:08;20.10;99.90
31729;DHT22;18309;43.658;1.312;2023-07-22T00:43:34;20.10;99.90
31729;DHT22;18309;43.658;1.312;2023-07-22T00:46:00;20.10;99.90
31729;DHT22;18309;43.658;1.312;2023-07-22T00:48:27;20.20;99.90
31729;DHT22;18309;43.658;1.312;2023-07-22T00:50:53;20.10;99.90
31729;DHT22;18309;43.658;1.312;2023-07-22T00:53:19;20.10;99.90
31729;DHT22;18309;43.658;1.312;2023-07-22T00:55:45;20.00;99.90
31729;DHT22;18309;43.658;1.312;2023-07-22T00:58:11;20.00;99.90
31729;DHT22;18309;43.658;1.312;2023-07-22T01:00:36;20.10;99.90
31729;DHT22;18309;43.658;1.312;2023-07-22T01:03:03;20.00;99.90
31729;DHT22;18309;43.658;1.312;2023-07-22T01:05:29;20.20;99.90
31729;DHT22;18309;43.658;1.312;2023-07-22T01:07:56;20.10;99.90
31729;DHT22;18309;43.658;1.312;2023-07-22T01:10:22;20.20;99.90
31729;DHT22;18309;43.658;1.312;2023-07-22T01:12:48;20.30;99.90
31729;DHT22;18309;43.658;1.312;2023-07-22T01:15:14;20.30;99.90
31729;DHT22;18309;43.658;1.312;2023-07-22T01:17:40;20.40;99.90
31729;DHT22;18309;43.658;1.312;2023-07-22T01:20:07;20.30;99.90
31729;DHT22;18309;43.658;1.312;2023-07-22T01:22:33;20.20;99.90
31729;DHT22;18309;43.658;1.312;2023-07-22T01:25:00;20.10;99.90
31729;DHT22;18309;43.658;1.312;2023-07-22T01:27:27;20.10;99.90
31729;DHT22;18309;43.658;1.312;2023-07-22T01:29:53;20.10;99.90
31729;DHT22;18309;43.658;1.312;2023-07-22T01:32:19;20.00;99.90
31729;DHT22;18309;43.658;1.312;2023-07-22T01:34:45;20.10;99.90
31729;DHT22;18309;43.658;1.312;2023-07-22T01:37:11;20.10;99.90
31729;DHT22;18309;43.658;1.312;2023-07-22T01:39:37;20.00;99.90
31729;DHT22;18309;43.658;1.312;2023-07-22T01:42:03;20.00;99.90
31729;DHT22;18309;43.658;1.312;2023-07-22T01:44:30;19.90;99.90
31729;DHT22;18309;43.658;1.312;2023-07-22T01:46:56;19.80;99.90
31729;DHT22;18309;43.658;1.312;2023-07-22T01:49:22;19.80;99.90
31729;DHT22;18309;43.658;1.312;2023-07-22T01:51:50;19.90;99.90
31729;DHT22;18309;43.658;1.312;2023-07-22T01:54:15;20.00;99.90
31729;DHT22;18309;43.658;1.312;2023-07-22T01:56:41;20.00;99.90
31729;DHT22;18309;43.658;1.312;2023-07-22T01:59:06;19.90;99.90
31729;DHT22;18309;43.658;1.312;2023-07-22T02:01:32;19.90;99.90
31729;DHT22;18309;43.658;1.312;2023-07-22T02:03:58;19.90;99.90
31729;DHT22;18309;43.658;1.312;2023-07-22T02:06:24;19.90;99.90
31729;DHT22;18309;43.658;1.312;2023-07-22T02:08:49;19.90;99.90
31729;DHT22;18309;43.658;1.312;2023-07-22T02:11:16;19.80;99.90
31729;DHT22;18309;43.658;1.312;2023-07-22T02:13:43;19.80;99.90
31729;DHT22;18309;43.658;1.312;2023-07-22T02:16:08;19.70;99.90
31729;DHT22;18309;43.658;1.312;2023-07-22T02:18:38;19.80;99.90
31729;DHT22;18309;43.658;1.312;2023-07-22T02:21:03;19.70;99.90
31729;DHT22;18309;43.658;1.312;2023-07-22T02:23:29;19.80;99.90
31729;DHT22;18309;43.658;1.312;2023-07-22T02:25:55;19.70;99.90
31729;DHT22;18309;43.658;1.312;2023-07-22T02:28:21;19.80;99.90
31729;DHT22;18309;43.658;1.312;2023-07-22T02:30:52;19.70;99.90
31729;DHT22;18309;43.658;1.312;2023-07-22T02:33:18;19.70;99.90
31729;DHT22;18309;43.658;1.312;2023-07-22T02:35:44;19.70;99.90
31729;DHT22;18309;43.658;1.312;2023-07-22T02:38:10;19.60;99.90
31729;DHT22;18309;43.658;1.312;2023-07-22T02:40:37;19.50;99.90
31729;DHT22;18309;43.658;1.312;2023-07-22T02:43:03;19.30;99.90
31729;DHT22;18309;43.658;1.312;2023-07-22T02:45:29;19.30;99.90
31729;DHT22;18309;43.658;1.312;2023-07-22T02:47:55;19.20;99.90
31729;DHT22;18309;43.658;1.312;2023-07-22T02:50:21;19.30;99.90
31729;DHT22;18309;43.658;1.312;2023-07-22T02:52:46;19.30;99.90
31729;DHT22;18309;43.658;1.312;2023-07-22T02:55:16;19.30;99.90
31729;DHT22;18309;43.658;1.312;2023-07-22T02:57:46;19.20;99.90
31729;DHT22;18309;43.658;1.312;2023-07-22T03:00:14;19.20;99.90
31729;DHT22;18309;43.658;1.312;2023-07-22T03:02:42;19.20;99.90
31729;DHT22;18309;43.658;1.312;2023-07-22T03:05:09;19.20;99.90
31729;DHT22;18309;43.658;1.312;2023-07-22T03:07:38;19.20;99.90
31729;DHT22;18309;43.658;1.312;2023-07-22T03:10:07;19.20;99.90
31729;DHT22;18309;43.658;1.312;2023-07-22T03:12:33;19.20;99.90
31729;DHT22;18309;43.658;1.312;2023-07-22T03:15:00;19.20;99.90
31729;DHT22;18309;43.658;1.312;2023-07-22T03:17:26;19.20;99.90
31729;DHT22;18309;43.658;1.312;2023-07-22T03:19:51;19.20;99.90
31729;DHT22;18309;43.658;1.312;2023-07-22T03:22:18;19.10;99.90
31729;DHT22;18309;43.658;1.312;2023-07-22T03:24:44;19.10;99.90
31729;DHT22;18309;43.658;1.312;2023-07-22T03:27:11;19.10;99.90
31729;DHT22;18309;43.658;1.312;2023-07-22T03:29:37;19.20;99.90
31729;DHT22;18309;43.658;1.312;2023-07-22T03:32:05;19.10;99.90
31729;DHT22;18309;43.658;1.312;2023-07-22T03:34:31;19.00;99.90
31729;DHT22;18309;43.658;1.312;2023-07-22T03:36:57;18.90;99.90
31729;DHT22;18309;43.658;1.312;2023-07-22T03:39:24;18.80;99.90
31729;DHT22;18309;43.658;1.312;2023-07-22T03:41:50;18.70;99.90
31729;DHT22;18309;43.658;1.312;2023-07-22T03:44:15;18.60;99.90
31729;DHT22;18309;43.658;1.312;2023-07-22T03:46:41;18.70;99.90
31729;DHT22;18309;43.658;1.312;2023-07-22T03:49:07;18.60;99.90
31729;DHT22;18309;43.658;1.312;2023-07-22T06:27:45;18.00;99.90
31729;DHT22;18309;43.658;1.312;2023-07-22T06:30:11;18.00;99.90
31729;DHT22;18309;43.658;1.312;2023-07-22T06:32:37;18.10;99.90
31729;DHT22;18309;43.658;1.312;2023-07-22T06:35:04;18.10;99.90
31729;DHT22;18309;43.658;1.312;2023-07-22T06:37:31;18.10;99.90
31729;DHT22;18309;43.658;1.312;2023-07-22T06:39:57;18.20;99.90
31729;DHT22;18309;43.658;1.312;2023-07-22T06:42:22;18.40;99.90
31729;DHT22;18309;43.658;1.312;2023-07-22T06:44:48;18.10;99.90
31729;DHT22;18309;43.658;1.312;2023-07-22T06:47:14;18.00;99.90
31729;DHT22;18309;43.658;1.312;2023-07-22T06:49:40;18.20;99.90
31729;DHT22;18309;43.658;1.312;2023-07-22T06:52:09;18.20;99.90
31729;DHT22;18309;43.658;1.312;2023-07-22T06:54:35;18.30;99.90
31729;DHT22;18309;43.658;1.312;2023-07-22T06:57:01;18.10;99.90
31729;DHT22;18309;43.658;1.312;2023-07-22T06:59:27;18.20;99.90
31729;DHT22;18309;43.658;1.312;2023-07-22T07:01:53;18.10;99.90
31729;DHT22;18309;43.658;1.312;2023-07-22T07:04:19;18.40;99.90
31729;DHT22;18309;43.658;1.312;2023-07-22T07:06:44;18.40;99.90
31729;DHT22;18309;43.658;1.312;2023-07-22T07:09:12;18.50;99.90
31729;DHT22;18309;43.658;1.312;2023-07-22T07:11:38;18.70;99.80
31729;DHT22;18309;43.658;1.312;2023-07-22T07:14:03;18.80;99.70
31729;DHT22;18309;43.658;1.312;2023-07-22T07:16:30;18.80;99.60
31729;DHT22;18309;43.658;1.312;2023-07-22T07:19:00;18.90;99.40
31729;DHT22;18309;43.658;1.312;2023-07-22T07:21:26;18.90;99.50
31729;DHT22;18309;43.658;1.312;2023-07-22T07:23:53;18.90;99.30
31729;DHT22;18309;43.658;1.312;2023-07-22T07:26:20;19.00;99.20
31729;DHT22;18309;43.658;1.312;2023-07-22T07:28:46;19.20;99.30
31729;DHT22;18309;43.658;1.312;2023-07-22T07:31:13;19.30;99.60
31729;DHT22;18309;43.658;1.312;2023-07-22T07:33:38;19.40;98.70
31729;DHT22;18309;43.658;1.312;2023-07-22T07:36:04;19.50;98.60
31729;DHT22;18309;43.658;1.312;2023-07-22T07:38:30;19.50;98.30
31729;DHT22;18309;43.658;1.312;2023-07-22T07:41:02;19.70;98.90
31729;DHT22;18309;43.658;1.312;2023-07-22T07:43:28;19.80;98.40
31729;DHT22;18309;43.658;1.312;2023-07-22T07:46:17;19.90;97.50
31729;DHT22;18309;43.658;1.312;2023-07-22T07:49:03;20.00;97.50
31729;DHT22;18309;43.658;1.312;2023-07-22T07:51:30;20.10;97.60
31729;DHT22;18309;43.658;1.312;2023-07-22T07:53:57;20.10;97.30
31729;DHT22;18309;43.658;1.312;2023-07-22T07:56:23;20.20;97.00
31729;DHT22;18309;43.658;1.312;2023-07-22T07:58:53;20.40;97.00
31729;DHT22;18309;43.658;1.312;2023-07-22T08:01:19;20.40;96.90
31729;DHT22;18309;43.658;1.312;2023-07-22T08:03:46;20.30;96.50
31729;DHT22;18309;43.658;1.312;2023-07-22T08:06:12;20.40;96.60
31729;DHT22;18309;43.658;1.312;2023-07-22T08:08:39;20.50;96.00
31729;DHT22;18309;43.658;1.312;2023-07-22T08:11:12;20.50;96.20
31729;DHT22;18309;43.658;1.312;2023-07-22T08:13:42;20.70;96.50
31729;DHT22;18309;43.658;1.312;2023-07-22T08:16:11;20.60;96.30
31729;DHT22;18309;43.658;1.312;2023-07-22T08:18:37;20.70;95.90
31729;DHT22;18309;43.658;1.312;2023-07-22T08:21:03;20.60;96.30
31729;DHT22;18309;43.658;1.312;2023-07-22T08:23:30;20.60;95.70
31729;DHT22;18309;43.658;1.312;2023-07-22T08:25:57;20.70;96.60
31729;DHT22;18309;43.658;1.312;2023-07-22T08:28:23;20.70;96.20
31729;DHT22;18309;43.658;1.312;2023-07-22T08:30:49;20.80;95.90
31729;DHT22;18309;43.658;1.312;2023-07-22T08:33:15;20.70;95.60
31729;DHT22;18309;43.658;1.312;2023-07-22T08:35:41;20.80;95.60
31729;DHT22;18309;43.658;1.312;2023-07-22T08:38:07;21.00;96.10
31729;DHT22;18309;43.658;1.312;2023-07-22T08:40:38;21.10;95.10
31729;DHT22;18309;43.658;1.312;2023-07-22T08:43:06;21.00;93.80
31729;DHT22;18309;43.658;1.312;2023-07-22T08:45:33;20.80;95.20
31729;DHT22;18309;43.658;1.312;2023-07-22T08:48:03;20.80;95.40
31729;DHT22;18309;43.658;1.312;2023-07-22T08:50:44;20.90;95.20
31729;DHT22;18309;43.658;1.312;2023-07-22T08:53:12;21.10;95.00
31729;DHT22;18309;43.658;1.312;2023-07-22T08:55:38;21.00;95.20
31729;DHT22;18309;43.658;1.312;2023-07-22T08:58:10;21.10;95.50
31729;DHT22;18309;43.658;1.312;2023-07-22T09:00:36;21.10;95.00
31729;DHT22;18309;43.658;1.312;2023-07-22T09:03:02;21.20;95.50
31729;DHT22;18309;43.658;1.312;2023-07-22T09:05:29;21.30;95.20
31729;DHT22;18309;43.658;1.312;2023-07-22T09:07:56;21.40;95.00
31729;DHT22;18309;43.658;1.312;2023-07-22T09:10:24;21.50;95.10
31729;DHT22;18309;43.658;1.312;2023-07-22T09:12:53;21.60;94.80
31729;DHT22;18309;43.658;1.312;2023-07-22T09:15:19;21.60;94.80
31729;DHT22;18309;43.658;1.312;2023-07-22T09:17:46;21.80;94.80
31729;DHT22;18309;43.658;1.312;2023-07-22T09:20:13;21.80;94.50
31729;DHT22;18309;43.658;1.312;2023-07-22T09:22:43;21.80;94.90
31729;DHT22;18309;43.658;1.312;2023-07-22T09:27:41;22.00;94.80
31729;DHT22;18309;43.658;1.312;2023-07-22T09:32:49;22.00;95.10
31729;DHT22;18309;43.658;1.312;2023-07-22T09:35:15;22.10;95.20
31729;DHT22;18309;43.658;1.312;2023-07-22T09:37:41;22.20;94.70
31729;DHT22;18309;43.658;1.312;2023-07-22T09:40:20;22.30;94.60
31729;DHT22;18309;43.658;1.312;2023-07-22T09:42:52;22.30;94.30
31729;DHT22;18309;43.658;1.312;2023-07-22T09:45:19;22.40;94.20
31729;DHT22;18309;43.658;1.312;2023-07-22T09:47:48;22.50;93.90
31729;DHT22;18309;43.658;1.312;2023-07-22T09:50:18;22.50;94.00
31729;DHT22;18309;43.658;1.312;2023-07-22T09:52:45;22.60;94.30
31729;DHT22;18309;43.658;1.312;2023-07-22T09:55:13;22.80;94.00
31729;DHT22;18309;43.658;1.312;2023-07-22T09:57:45;22.80;93.20
31729;DHT22;18309;43.658;1.312;2023-07-22T10:00:13;22.90;94.00
31729;DHT22;18309;43.658;1.312;2023-07-22T10:02:41;22.90;93.40
31729;DHT22;18309;43.658;1.312;2023-07-22T10:05:15;23.00;93.50
31729;DHT22;18309;43.658;1.312;2023-07-22T10:07:53;23.10;92.60
31729;DHT22;18309;43.658;1.312;2023-07-22T10:10:25;23.10;93.00
31729;DHT22;18309;43.658;1.312;2023-07-22T10:12:51;23.30;92.70
31729;DHT22;18309;43.658;1.312;2023-07-22T10:15:18;23.30;92.70
31729;DHT22;18309;43.658;1.312;2023-07-22T10:17:45;23.40;92.80
31729;DHT22;18309;43.658;1.312;2023-07-22T10:20:12;23.50;92.70
31729;DHT22;18309;43.658;1.312;2023-07-22T10:22:43;23.50;92.40
31729;DHT22;18309;43.658;1.312;2023-07-22T10:25:11;23.50;91.20
31729;DHT22;18309;43.658;1.312;2023-07-22T10:27:39;23.50;91.30
31729;DHT22;18309;43.658;1.312;2023-07-22T10:30:06;23.60;91.90
31729;DHT22;18309;43.658;1.312;2023-07-22T10:32:39;23.70;91.90
31729;DHT22;18309;43.658;1.312;2023-07-22T10:37:49;23.80;91.20
31729;DHT22;18309;43.658;1.312;2023-07-22T10:40:29;23.80;91.40
31729;DHT22;18309;43.658;1.312;2023-07-22T10:43:04;23.90;91.60
31729;DHT22;18309;43.658;1.312;2023-07-22T10:45:32;24.00;90.60
31729;DHT22;18309;43.658;1.312;2023-07-22T10:48:12;24.00;90.70
31729;DHT22;18309;43.658;1.312;2023-07-22T10:50:45;24.10;90.50
31729;DHT22;18309;43.658;1.312;2023-07-22T10:53:38;24.10;90.50
31729;DHT22;18309;43.658;1.312;2023-07-22T10:56:12;24.20;90.40
31729;DHT22;18309;43.658;1.312;2023-07-22T11:01:23;24.10;91.20
31729;DHT22;18309;43.658;1.312;2023-07-22T11:12:01;24.50;90.40
31729;DHT22;18309;43.658;1.312;2023-07-22T11:14:28;24.60;89.80
31729;DHT22;18309;43.658;1.312;2023-07-22T11:16:56;24.70;89.40
31729;DHT22;18309;43.658;1.312;2023-07-22T11:19:23;24.60;88.20
31729;DHT22;18309;43.658;1.312;2023-07-22T11:21:52;24.70;89.30
31729;DHT22;18309;43.658;1.312;2023-07-22T11:24:20;24.70;87.90
31729;DHT22;18309;43.658;1.312;2023-07-22T11:26:47;24.70;87.60
31729;DHT22;18309;43.658;1.312;2023-07-22T11:29:15;24.60;87.40
31729;DHT22;18309;43.658;1.312;2023-07-22T11:31:45;24.50;87.60
31729;DHT22;18309;43.658;1.312;2023-07-22T11:34:13;24.40;87.70
31729;DHT22;18309;43.658;1.312;2023-07-22T11:36:39;24.40;87.70
31729;DHT22;18309;43.658;1.312;2023-07-22T11:39:14;24.50;87.90
31729;DHT22;18309;43.658;1.312;2023-07-22T11:41:41;24.60;87.70
31729;DHT22;18309;43.658;1.312;2023-07-22T11:44:11;24.70;87.80
31729;DHT22;18309;43.658;1.312;2023-07-22T11:49:41;25.10;86.40
31729;DHT22;18309;43.658;1.312;2023-07-22T11:52:16;25.40;85.50
31729;DHT22;18309;43.658;1.312;2023-07-22T11:54:46;25.60;85.60
31729;DHT22;18309;43.658;1.312;2023-07-22T11:57:22;25.60;84.90
31729;DHT22;18309;43.658;1.312;2023-07-22T11:59:53;25.60;85.80
31729;DHT22;18309;43.658;1.312;2023-07-22T12:02:24;25.70;85.60
31729;DHT22;18309;43.658;1.312;2023-07-22T12:05:04;25.60;83.30
31729;DHT22;18309;43.658;1.312;2023-07-22T12:07:35;25.80;83.90
31729;DHT22;18309;43.658;1.312;2023-07-22T12:10:05;25.60;82.70
31729;DHT22;18309;43.658;1.312;2023-07-22T12:12:42;25.30;82.70
31729;DHT22;18309;43.658;1.312;2023-07-22T12:15:11;25.40;82.50
31729;DHT22;18309;43.658;1.312;2023-07-22T12:20:26;25.50;83.70
31729;DHT22;18309;43.658;1.312;2023-07-22T12:22:52;25.50;82.10
31729;DHT22;18309;43.658;1.312;2023-07-22T12:25:18;25.40;82.00
31729;DHT22;18309;43.658;1.312;2023-07-22T12:27:44;25.50;83.50
31729;DHT22;18309;43.658;1.312;2023-07-22T12:30:10;25.70;82.80
31729;DHT22;18309;43.658;1.312;2023-07-22T12:32:36;25.90;83.60
31729;DHT22;18309;43.658;1.312;2023-07-22T12:35:02;26.10;81.90
31729;DHT22;18309;43.658;1.312;2023-07-22T12:37:29;26.50;82.10
31729;DHT22;18309;43.658;1.312;2023-07-22T12:39:56;26.50;81.40
31729;DHT22;18309;43.658;1.312;2023-07-22T12:42:21;26.50;81.80
31729;DHT22;18309;43.658;1.312;2023-07-22T12:44:47;26.60;79.80
31729;DHT22;18309;43.658;1.312;2023-07-22T12:47:13;27.10;80.10
31729;DHT22;18309;43.658;1.312;2023-07-22T12:49:39;27.00;77.80
31729;DHT22;18309;43.658;1.312;2023-07-22T12:52:04;26.80;78.40
31729;DHT22;18309;43.658;1.312;2023-07-22T12:54:37;26.70;78.40
31729;DHT22;18309;43.658;1.312;2023-07-22T12:57:04;26.80;79.80
31729;DHT22;18309;43.658;1.312;2023-07-22T12:59:30;26.90;78.40
31729;DHT22;18309;43.658;1.312;2023-07-22T13:01:57;26.90;78.40
31729;DHT22;18309;43.658;1.312;2023-07-22T13:04:24;27.00;79.10
31729;DHT22;18309;43.658;1.312;2023-07-22T13:06:50;27.10;77.20
31729;DHT22;18309;43.658;1.312;2023-07-22T13:09:20;27.10;77.50
31729;DHT22;18309;43.658;1.312;2023-07-22T13:11:46;27.00;76.80
31729;DHT22;18309;43.658;1.312;2023-07-22T13:14:12;27.20;77.90
31729;DHT22;18309;43.658;1.312;2023-07-22T13:16:37;27.20;76.40
31729;DHT22;18309;43.658;1.312;2023-07-22T13:19:03;27.00;76.60
31729;DHT22;18309;43.658;1.312;2023-07-22T13:21:29;27.10;76.60
31729;DHT22;18309;43.658;1.312;2023-07-22T13:23:55;27.40;77.20
31729;DHT22;18309;43.658;1.312;2023-07-22T13:26:22;27.50;75.70
31729;DHT22;18309;43.658;1.312;2023-07-22T13:28:48;27.80;74.90
31729;DHT22;18309;43.658;1.312;2023-07-22T13:31:13;28.50;75.20
31729;DHT22;18309;43.658;1.312;2023-07-22T13:33:39;28.80;71.60
31729;DHT22;18309;43.658;1.312;2023-07-22T13:36:06;29.90;69.60
31729;DHT22;18309;43.658;1.312;2023-07-22T13:38:32;31.70;64.70
31729;DHT22;18309;43.658;1.312;2023-07-22T13:40:57;34.90;59.00
31729;DHT22;18309;43.658;1.312;2023-07-22T13:43:23;38.20;54.90
31729;DHT22;18309;43.658;1.312;2023-07-22T13:45:48;40.50;52.10
31729;DHT22;18309;43.658;1.312;2023-07-22T13:48:14;41.30;48.40
31729;DHT22;18309;43.658;1.312;2023-07-22T13:50:40;41.60;47.80
31729;DHT22;18309;43.658;1.312;2023-07-22T13:53:07;42.30;47.10
31729;DHT22;18309;43.658;1.312;2023-07-22T13:55:33;41.90;47.00
31729;DHT22;18309;43.658;1.312;2023-07-22T13:57:58;42.10;46.90
31729;DHT22;18309;43.658;1.312;2023-07-22T14:00:24;40.50;48.80
31729;DHT22;18309;43.658;1.312;2023-07-22T14:02:50;39.60;51.20
31729;DHT22;18309;43.658;1.312;2023-07-22T14:05:15;38.90;53.30
31729;DHT22;18309;43.658;1.312;2023-07-22T14:07:41;37.30;54.70
31729;DHT22;18309;43.658;1.312;2023-07-22T14:10:07;36.20;55.50
31729;DHT22;18309;43.658;1.312;2023-07-22T14:12:34;35.70;56.10
31729;DHT22;18309;43.658;1.312;2023-07-22T14:15:00;35.00;56.20
31729;DHT22;18309;43.658;1.312;2023-07-22T14:17:26;34.70;56.90
31729;DHT22;18309;43.658;1.312;2023-07-22T14:19:52;34.20;57.60
31729;DHT22;18309;43.658;1.312;2023-07-22T14:22:17;33.90;57.70
31729;DHT22;18309;43.658;1.312;2023-07-22T14:24:43;33.90;57.80
31729;DHT22;18309;43.658;1.312;2023-07-22T14:27:09;33.60;57.60
31729;DHT22;18309;43.658;1.312;2023-07-22T14:29:34;33.30;57.80
31729;DHT22;18309;43.658;1.312;2023-07-22T14:32:00;33.40;57.90
31729;DHT22;18309;43.658;1.312;2023-07-22T14:34:25;33.40;58.80
31729;DHT22;18309;43.658;1.312;2023-07-22T14:36:51;33.50;57.90
31729;DHT22;18309;43.658;1.312;2023-07-22T14:39:17;33.20;57.70
31729;DHT22;18309;43.658;1.312;2023-07-22T14:41:43;32.70;57.20
31729;DHT22;18309;43.658;1.312;2023-07-22T14:44:12;32.60;57.80
31729;DHT22;18309;43.658;1.312;2023-07-22T14:46:38;32.60;58.30
31729;DHT22;18309;43.658;1.312;2023-07-22T14:49:04;32.80;58.90
31729;DHT22;18309;43.658;1.312;2023-07-22T14:51:30;33.00;58.60
31729;DHT22;18309;43.658;1.312;2023-07-22T14:53:56;33.10;57.60
31729;DHT22;18309;43.658;1.312;2023-07-22T14:56:21;32.90;58.00
31729;DHT22;18309;43.658;1.312;2023-07-22T14:58:47;32.80;58.70
31729;DHT22;18309;43.658;1.312;2023-07-22T15:01:14;32.70;58.20
31729;DHT22;18309;43.658;1.312;2023-07-22T15:03:40;32.60;58.80
31729;DHT22;18309;43.658;1.312;2023-07-22T15:06:06;32.60;58.60
31729;DHT22;18309;43.658;1.312;2023-07-22T15:08:32;32.90;59.30
31729;DHT22;18309;43.658;1.312;2023-07-22T15:10:58;33.00;59.20
31729;DHT22;18309;43.658;1.312;2023-07-22T15:13:23;33.10;58.80
31729;DHT22;18309;43.658;1.312;2023-07-22T15:15:49;33.20;58.50
31729;DHT22;18309;43.658;1.312;2023-07-22T15:18:15;33.20;57.60
31729;DHT22;18309;43.658;1.312;2023-07-22T15:20:40;33.00;58.00
31729;DHT22;18309;43.658;1.312;2023-07-22T15:23:06;32.30;58.20
31729;DHT22;18309;43.658;1.312;2023-07-22T15:25:32;32.60;59.00
31729;DHT22;18309;43.658;1.312;2023-07-22T15:27:58;32.80;59.10
31729;DHT22;18309;43.658;1.312;2023-07-22T15:30:24;33.00;58.80
31729;DHT22;18309;43.658;1.312;2023-07-22T15:32:49;33.20;58.80
31729;DHT22;18309;43.658;1.312;2023-07-22T15:35:16;33.10;58.00
31729;DHT22;18309;43.658;1.312;2023-07-22T15:37:42;32.90;58.60
31729;DHT22;18309;43.658;1.312;2023-07-22T15:40:08;33.00;58.00
31729;DHT22;18309;43.658;1.312;2023-07-22T15:42:34;33.20;58.50
31729;DHT22;18309;43.658;1.312;2023-07-22T15:44:59;33.30;57.60
31729;DHT22;18309;43.658;1.312;2023-07-22T15:47:27;33.30;57.90
31729;DHT22;18309;43.658;1.312;2023-07-22T15:49:52;33.40;58.00
31729;DHT22;18309;43.658;1.312;2023-07-22T15:52:18;33.30;58.00
31729;DHT22;18309;43.658;1.312;2023-07-22T15:54:44;33.40;58.10
31729;DHT22;18309;43.658;1.312;2023-07-22T15:57:10;33.40;57.60
31729;DHT22;18309;43.658;1.312;2023-07-22T15:59:35;33.40;56.90
31729;DHT22;18309;43.658;1.312;2023-07-22T16:02:01;33.30;56.90
31729;DHT22;18309;43.658;1.312;2023-07-22T16:04:27;33.20;57.00
31729;DHT22;18309;43.658;1.312;2023-07-22T16:06:53;33.00;57.70
31729;DHT22;18309;43.658;1.312;2023-07-22T16:09:19;33.00;57.50
31729;DHT22;18309;43.658;1.312;2023-07-22T16:11:44;32.60;57.60
31729;DHT22;18309;43.658;1.312;2023-07-22T16:14:10;32.50;59.00
31729;DHT22;18309;43.658;1.312;2023-07-22T16:16:36;32.80;58.90
31729;DHT22;18309;43.658;1.312;2023-07-22T16:19:02;32.90;58.40
31729;DHT22;18309;43.658;1.312;2023-07-22T16:21:28;32.80;58.10
31729;DHT22;18309;43.658;1.312;2023-07-22T16:23:54;32.60;57.40
31729;DHT22;18309;43.658;1.312;2023-07-22T16:26:19;32.60;59.10
31729;DHT22;18309;43.658;1.312;2023-07-22T16:28:45;32.50;58.70
31729;DHT22;18309;43.658;1.312;2023-07-22T16:31:11;32.60;58.50
31729;DHT22;18309;43.658;1.312;2023-07-22T16:33:36;32.80;58.10
31729;DHT22;18309;43.658;1.312;2023-07-22T16:36:02;32.80;57.70
31729;DHT22;18309;43.658;1.312;2023-07-22T16:38:28;32.60;58.10
31729;DHT22;18309;43.658;1.312;2023-07-22T16:40:53;32.70;58.40
31729;DHT22;18309;43.658;1.312;2023-07-22T16:43:19;32.50;58.40
31729;DHT22;18309;43.658;1.312;2023-07-22T16:45:44;32.30;59.20
31729;DHT22;18309;43.658;1.312;2023-07-22T16:48:10;32.50;59.50
31729;DHT22;18309;43.658;1.312;2023-07-22T16:50:36;32.50;58.80
31729;DHT22;18309;43.658;1.312;2023-07-22T16:53:01;32.40;59.20
31729;DHT22;18309;43.658;1.312;2023-07-22T16:55:29;32.50;59.40
31729;DHT22;18309;43.658;1.312;2023-07-22T16:57:54;32.40;59.60
31729;DHT22;18309;43.658;1.312;2023-07-22T17:00:20;32.40;59.10
31729;DHT22;18309;43.658;1.312;2023-07-22T17:02:47;32.40;59.10
31729;DHT22;18309;43.658;1.312;2023-07-22T17:05:13;32.30;59.30
31729;DHT22;18309;43.658;1.312;2023-07-22T17:07:39;32.30;59.60
31729;DHT22;18309;43.658;1.312;2023-07-22T17:10:05;32.30;59.50
31729;DHT22;18309;43.658;1.312;2023-07-22T17:12:31;32.20;60.50
31729;DHT22;18309;43.658;1.312;2023-07-22T17:14:57;32.10;59.70
31729;DHT22;18309;43.658;1.312;2023-07-22T17:17:23;32.20;60.00
31729;DHT22;18309;43.658;1.312;2023-07-22T17:19:48;32.10;59.10
31729;DHT22;18309;43.658;1.312;2023-07-22T17:22:14;32.10;59.50
31729;DHT22;18309;43.658;1.312;2023-07-22T17:24:40;32.00;59.10
31729;DHT22;18309;43.658;1.312;2023-07-22T17:27:06;31.60;60.00
31729;DHT22;18309;43.658;1.312;2023-07-22T17:29:31;31.70;60.30
31729;DHT22;18309;43.658;1.312;2023-07-22T17:31:57;31.70;60.10
31729;DHT22;18309;43.658;1.312;2023-07-22T17:34:23;31.50;60.60
31729;DHT22;18309;43.658;1.312;2023-07-22T17:36:48;31.30;62.10
31729;DHT22;18309;43.658;1.312;2023-07-22T17:39:14;31.30;61.50
31729;DHT22;18309;43.658;1.312;2023-07-22T17:41:40;31.30;62.10
31729;DHT22;18309;43.658;1.312;2023-07-22T17:44:07;31.20;62.00
31729;DHT22;18309;43.658;1.312;2023-07-22T17:46:32;31.20;61.40
31729;DHT22;18309;43.658;1.312;2023-07-22T17:48:58;31.10;62.00
31729;DHT22;18309;43.658;1.312;2023-07-22T17:51:24;30.90;62.60
31729;DHT22;18309;43.658;1.312;2023-07-22T17:53:49;31.00;62.60
31729;DHT22;18309;43.658;1.312;2023-07-22T17:56:15;31.00;62.30
31729;DHT22;18309;43.658;1.312;2023-07-22T17:58:41;30.90;63.20
31729;DHT22;18309;43.658;1.312;2023-07-22T18:01:06;30.70;63.50
31729;DHT22;18309;43.658;1.312;2023-07-22T18:03:32;30.70;63.60
31729;DHT22;18309;43.658;1.312;2023-07-22T18:05:58;30.50;64.00
31729;DHT22;18309;43.658;1.312;2023-07-22T18:08:24;30.40;64.90
31729;DHT22;18309;43.658;1.312;2023-07-22T18:10:49;30.20;65.40
31729;DHT22;18309;43.658;1.312;2023-07-22T18:13:15;30.20;65.40
31729;DHT22;18309;43.658;1.312;2023-07-22T18:15:41;30.10;65.70
31729;DHT22;18309;43.658;1.312;2023-07-22T18:18:06;29.90;66.90
31729;DHT22;18309;43.658;1.312;2023-07-22T18:20:34;29.80;67.80
31729;DHT22;18309;43.658;1.312;2023-07-22T18:22:59;29.70;67.40
31729;DHT22;18309;43.658;1.312;2023-07-22T18:25:25;29.60;67.10
31729;DHT22;18309;43.658;1.312;2023-07-22T18:27:50;29.50;69.10
31729;DHT22;18309;43.658;1.312;2023-07-22T18:30:16;29.30;67.70